createdAt,value
2023-11-16T00:02:06.068Z,3.08
2023-11-16T00:05:08.071Z,2.80
2023-11-16T00:08:11.571Z,3.45
2023-11-16T00:11:13.133Z,3.05
2023-11-16T00:14:14.698Z,2.53
2023-11-16T00:17:16.233Z,3.85
2023-11-16T00:20:17.808Z,3.47
2023-11-16T00:23:19.354Z,3.92
2023-11-16T00:26:23.079Z,3.20
2023-11-16T00:29:29.013Z,3.20
2023-11-16T00:32:30.772Z,3.40
2023-11-16T00:35:33.147Z,3.42
2023-11-16T00:38:36.601Z,3.20
2023-11-16T00:41:38.492Z,3.22
2023-11-16T00:44:40.268Z,3.50
2023-11-16T00:47:41.926Z,3.58
2023-11-16T00:50:43.513Z,3.22
2023-11-16T00:53:45.376Z,3.28
2023-11-16T00:56:46.918Z,3.80
2023-11-16T00:59:48.812Z,4.60
2023-11-16T01:02:50.815Z,3.47
2023-11-16T01:05:52.502Z,3.97
2023-11-16T01:08:54.548Z,3.17
2023-11-16T01:11:56.979Z,2.67
2023-11-16T01:15:00.945Z,2.85
2023-11-16T01:21:09.864Z,3.67
2023-11-16T01:24:12.682Z,2.92
2023-11-16T01:27:19.204Z,3.10
2023-11-16T01:30:21.573Z,4.05
2023-11-16T01:33:23.955Z,3.00
2023-11-16T01:36:25.981Z,3.53
2023-11-16T01:39:27.584Z,3.22
2023-11-16T01:42:29.487Z,3.17
2023-11-16T01:45:32.945Z,3.25
2023-11-16T01:48:36.704Z,4.10
2023-11-16T01:51:39.175Z,3.33
2023-11-16T01:54:41.075Z,3.63
2023-11-16T01:57:42.675Z,3.67
2023-11-16T02:00:45.552Z,3.80
2023-11-16T02:03:48.105Z,3.53
2023-11-16T02:06:50.249Z,3.20
2023-11-16T02:09:51.920Z,3.83
2023-11-16T02:12:54.593Z,3.10
2023-11-16T02:15:59.795Z,3.73
2023-11-16T02:19:30.937Z,3.35
2023-11-16T02:22:33.783Z,3.78
2023-11-16T02:25:45.293Z,3.63
2023-11-16T02:28:46.832Z,3.70
2023-11-16T02:31:48.578Z,3.30
2023-11-16T02:34:50.206Z,3.33
2023-11-16T02:37:51.826Z,3.53
2023-11-16T02:40:53.612Z,3.45
2023-11-16T02:43:55.285Z,4.03
2023-11-16T02:46:57.136Z,3.40
2023-11-16T02:49:58.758Z,3.47
2023-11-16T02:53:00.311Z,3.53
2023-11-16T02:56:04.421Z,3.78
2023-11-16T03:02:09.201Z,3.22
2023-11-16T03:05:11.889Z,4.10
2023-11-16T03:08:13.479Z,3.03
2023-11-16T03:11:15.073Z,3.50
2023-11-16T03:14:16.644Z,3.67
2023-11-16T03:17:18.961Z,3.75
2023-11-16T03:20:22.088Z,3.42
2023-11-16T03:23:23.618Z,3.92
2023-11-16T03:26:25.198Z,4.25
2023-11-16T03:29:27.050Z,3.97
2023-11-16T03:32:28.594Z,4.05
2023-11-16T03:35:30.285Z,3.70
2023-11-16T03:38:32.008Z,3.45
2023-11-16T03:41:34.897Z,3.45
2023-11-16T03:44:36.458Z,3.70
2023-11-16T03:47:38.035Z,3.97
2023-11-16T03:50:41.223Z,3.72
2023-11-16T03:53:44.264Z,3.50
2023-11-16T03:56:46.157Z,3.58
2023-11-16T03:59:47.647Z,3.42
2023-11-16T04:02:49.999Z,3.80
2023-11-16T04:05:51.650Z,3.97
2023-11-16T04:08:54.053Z,3.83
2023-11-16T04:11:55.975Z,5.10
2023-11-16T04:14:57.560Z,3.45
2023-11-16T04:17:59.659Z,3.65
2023-11-16T04:21:01.227Z,3.55
2023-11-16T04:24:07.045Z,2.70
2023-11-16T04:27:08.978Z,3.72
2023-11-16T04:30:12.358Z,3.40
2023-11-16T04:33:14.012Z,3.70
2023-11-16T04:36:18.192Z,3.00
2023-11-16T04:42:21.536Z,3.55
2023-11-16T04:45:23.165Z,3.60
2023-11-16T04:48:24.921Z,3.60
2023-11-16T04:51:26.985Z,3.50
2023-11-16T04:54:28.766Z,3.38
2023-11-16T04:57:30.485Z,4.50
2023-11-16T05:00:32.126Z,3.92
2023-11-16T05:03:33.807Z,3.65
2023-11-16T05:06:40.724Z,4.53
2023-11-16T05:09:43.174Z,3.50
2023-11-16T05:12:49.582Z,3.88
2023-11-16T05:15:51.577Z,4.45
2023-11-16T05:18:53.219Z,3.92
2023-11-16T05:21:55.056Z,4.00
2023-11-16T05:24:56.626Z,4.00
2023-11-16T05:27:58.205Z,4.10
2023-11-16T05:31:00.007Z,3.83
2023-11-16T05:34:01.897Z,3.70
2023-11-16T05:37:04.187Z,3.25
2023-11-16T05:40:07.507Z,4.30
2023-11-16T05:43:09.749Z,3.65
2023-11-16T05:46:13.358Z,4.63
2023-11-16T05:49:16.351Z,4.20
2023-11-16T05:52:17.946Z,4.35
2023-11-16T05:55:21.458Z,4.05
2023-11-16T05:58:22.989Z,4.13
2023-11-16T06:01:24.847Z,4.72
2023-11-16T06:04:26.557Z,4.72
2023-11-16T06:07:28.139Z,5.03
2023-11-16T06:10:29.707Z,5.13
2023-11-16T06:13:31.239Z,4.30
2023-11-16T06:16:32.898Z,5.07
2023-11-16T06:19:34.481Z,3.88
2023-11-16T06:22:36.745Z,5.45
2023-11-16T06:25:38.736Z,5.47
2023-11-16T06:28:40.316Z,5.78
2023-11-16T06:31:42.757Z,6.40
2023-11-16T06:34:45.002Z,6.25
2023-11-16T06:37:47.315Z,6.35
2023-11-16T06:40:49.351Z,4.95
2023-11-16T06:43:53.090Z,4.57
2023-11-16T06:46:55.998Z,4.05
2023-11-16T06:49:58.413Z,4.57
2023-11-16T06:53:04.159Z,4.60
2023-11-16T06:56:06.173Z,5.15
2023-11-16T06:59:14.204Z,4.20
2023-11-16T07:02:15.913Z,5.07
2023-11-16T07:05:17.712Z,4.93
2023-11-16T07:08:20.928Z,5.20
2023-11-16T07:11:22.757Z,5.00
2023-11-16T07:14:25.854Z,5.65
2023-11-16T07:17:28.689Z,4.47
2023-11-16T07:20:31.144Z,4.90
2023-11-16T07:23:33.573Z,4.78
2023-11-16T07:26:35.113Z,6.80
2023-11-16T07:29:38.110Z,5.68
2023-11-16T07:32:41.907Z,5.75
2023-11-16T07:35:45.581Z,6.35
2023-11-16T07:38:48.338Z,5.82
2023-11-16T07:41:50.940Z,7.05
2023-11-16T07:44:55.116Z,5.55
2023-11-16T07:48:01.588Z,5.30
2023-11-16T07:51:03.572Z,5.03
2023-11-16T07:54:05.560Z,5.75
2023-11-16T07:57:07.193Z,5.55
2023-11-16T08:00:11.129Z,5.15
2023-11-16T08:03:31.268Z,5.10
2023-11-16T08:06:36.568Z,5.28
2023-11-16T08:09:38.316Z,4.93
2023-11-16T08:12:41.750Z,4.80
2023-11-16T08:15:43.752Z,5.10
2023-11-16T08:18:45.974Z,5.57
2023-11-16T08:21:47.940Z,5.07
2023-11-16T08:24:50.336Z,5.72
2023-11-16T08:27:52.976Z,5.20
2023-11-16T08:30:54.789Z,5.30
2023-11-16T08:33:56.454Z,5.40
2023-11-16T08:36:58.211Z,4.30
2023-11-16T08:39:59.864Z,4.50
2023-11-16T08:43:02.623Z,4.75
2023-11-16T08:46:04.632Z,5.20
2023-11-16T08:49:06.342Z,5.05
2023-11-16T08:52:09.046Z,4.40
2023-11-16T08:55:13.069Z,4.38
2023-11-16T08:58:15.498Z,4.07
2023-11-16T09:01:20.400Z,4.75
2023-11-16T09:04:22.700Z,4.07
2023-11-16T09:07:24.376Z,4.68
2023-11-16T09:10:25.954Z,4.30
2023-11-16T09:13:29.322Z,4.20
2023-11-16T09:16:31.085Z,4.45
2023-11-16T09:19:32.670Z,4.22
2023-11-16T09:22:34.842Z,4.35
2023-11-16T09:25:36.896Z,4.55
2023-11-16T09:28:39.767Z,4.30
2023-11-16T09:31:42.441Z,4.82
2023-11-16T09:34:44.368Z,4.30
2023-11-16T09:37:46.440Z,4.15
2023-11-16T09:40:49.520Z,4.53
2023-11-16T09:43:55.813Z,4.65
2023-11-16T09:47:03.713Z,4.35
2023-11-16T09:50:10.058Z,3.83
2023-11-16T09:53:17.611Z,4.25
2023-11-16T09:56:36.224Z,3.65
2023-11-16T09:59:45.828Z,3.70
2023-11-16T10:02:50.401Z,2.67
2023-11-16T10:05:54.735Z,4.03
2023-11-16T10:12:08.149Z,5.15
2023-11-16T10:15:19.112Z,4.55
2023-11-16T10:18:25.679Z,5.15
2023-11-16T10:21:29.624Z,3.72
2023-11-16T10:27:35.902Z,3.70
2023-11-16T10:30:39.089Z,3.22
2023-11-16T10:33:41.260Z,3.00
2023-11-16T10:36:45.549Z,3.05
2023-11-16T10:39:50.951Z,2.25
2023-11-16T10:42:53.421Z,2.30
2023-11-16T10:45:58.102Z,2.47
2023-11-16T10:48:59.912Z,1.80
2023-11-16T10:52:03.797Z,2.30
2023-11-16T10:55:14.927Z,1.95
2023-11-16T10:58:22.112Z,2.00
2023-11-16T11:01:25.930Z,2.15
2023-11-16T11:04:27.697Z,2.20
2023-11-16T11:07:31.599Z,2.35
2023-11-16T11:10:34.619Z,2.67
2023-11-16T11:13:36.546Z,1.83
2023-11-16T11:16:41.882Z,2.15
2023-11-16T11:19:43.667Z,2.17
2023-11-16T11:22:45.301Z,1.88
2023-11-16T11:25:47.752Z,1.77
2023-11-16T11:28:49.326Z,2.33
2023-11-16T11:31:58.320Z,3.13
2023-11-16T11:35:10.141Z,1.95
2023-11-16T11:38:28.808Z,1.90
2023-11-16T11:41:31.614Z,2.35
2023-11-16T11:44:33.193Z,2.47
2023-11-16T11:47:35.126Z,2.13
2023-11-16T11:50:36.738Z,2.70
2023-11-16T11:53:39.825Z,2.25
2023-11-16T11:56:47.921Z,2.10
2023-11-16T11:59:50.762Z,2.33
2023-11-16T12:02:52.532Z,3.65
2023-11-16T12:05:57.209Z,3.00
2023-11-16T12:08:58.926Z,3.15
2023-11-16T12:12:05.164Z,3.40
2023-11-16T12:15:08.175Z,3.53
2023-11-16T12:18:13.250Z,2.83
2023-11-16T12:21:16.524Z,1.33
2023-11-16T12:24:21.564Z,1.40
2023-11-16T12:27:23.210Z,1.38
2023-11-16T12:30:25.436Z,1.27
2023-11-16T12:33:27.106Z,1.95
2023-11-16T12:36:33.255Z,1.52
2023-11-16T12:39:34.959Z,1.40
2023-11-16T12:42:36.989Z,2.63
2023-11-16T12:45:38.869Z,2.03
2023-11-16T12:48:41.166Z,2.35
2023-11-16T12:51:43.154Z,2.30
2023-11-16T12:54:44.753Z,1.80
2023-11-16T12:57:47.996Z,2.00
2023-11-16T13:00:50.757Z,2.27
2023-11-16T13:03:53.960Z,1.70
2023-11-16T13:06:58.461Z,1.60
2023-11-16T13:10:02.904Z,2.08
2023-11-16T13:13:04.582Z,1.55
2023-11-16T13:16:07.442Z,1.80
2023-11-16T13:19:09.307Z,2.30
2023-11-16T13:22:11.359Z,1.90
2023-11-16T13:25:13.308Z,1.98
2023-11-16T13:28:15.619Z,2.03
2023-11-16T13:31:17.328Z,1.80
2023-11-16T13:34:18.905Z,2.10
2023-11-16T13:37:21.364Z,2.03
2023-11-16T13:40:23.255Z,1.42
2023-11-16T13:43:25.926Z,1.60
2023-11-16T13:46:27.743Z,1.90
2023-11-16T13:49:31.129Z,2.50
2023-11-16T13:52:36.281Z,1.67
2023-11-16T13:55:37.940Z,2.10
2023-11-16T13:58:40.890Z,3.42
2023-11-16T14:01:42.531Z,1.70
2023-11-16T14:04:44.204Z,1.92
2023-11-16T14:07:45.858Z,1.73
2023-11-16T14:10:47.470Z,1.73
2023-11-16T14:13:49.177Z,2.28
2023-11-16T14:16:51.374Z,2.53
2023-11-16T14:19:53.022Z,2.10
2023-11-16T14:22:54.663Z,3.00
2023-11-16T14:25:57.346Z,2.40
2023-11-16T14:28:58.916Z,1.95
2023-11-16T14:32:00.530Z,2.88
2023-11-16T14:35:14.452Z,2.33
2023-11-16T14:38:21.448Z,3.00
2023-11-16T14:41:23.718Z,3.15
2023-11-16T14:44:25.411Z,3.05
2023-11-16T14:47:32.966Z,2.47
2023-11-16T14:50:40.729Z,2.78
2023-11-16T14:53:50.996Z,3.00
2023-11-16T14:56:57.154Z,2.60
2023-11-16T14:59:58.890Z,2.80
2023-11-16T15:03:01.089Z,3.08
2023-11-16T15:06:02.975Z,4.53
2023-11-16T15:09:05.634Z,3.05
2023-11-16T15:12:08.168Z,2.35
2023-11-16T15:15:12.580Z,3.03
2023-11-16T15:18:15.875Z,3.10
2023-11-16T15:21:19.571Z,3.03
2023-11-16T15:24:21.282Z,3.88
2023-11-16T15:27:22.912Z,3.80
2023-11-16T15:30:25.175Z,3.17
2023-11-16T15:33:26.808Z,2.90
2023-11-16T15:36:30.069Z,3.45
2023-11-16T15:39:31.725Z,2.70
2023-11-16T15:42:34.022Z,3.78
2023-11-16T15:45:35.769Z,3.90
2023-11-16T15:48:37.655Z,3.78
2023-11-16T15:51:40.464Z,3.22
2023-11-16T15:54:43.945Z,3.88
2023-11-16T15:57:46.011Z,3.92
2023-11-16T16:00:47.789Z,4.00
2023-11-16T16:03:50.646Z,3.45
2023-11-16T16:06:52.955Z,3.53
2023-11-16T16:09:54.653Z,3.63
2023-11-16T16:12:56.438Z,5.22
2023-11-16T16:15:58.118Z,4.32
2023-11-16T16:19:01.604Z,4.38
2023-11-16T16:22:04.485Z,4.22
2023-11-16T16:25:08.460Z,4.05
2023-11-16T16:28:12.440Z,4.05
2023-11-16T16:31:23.959Z,3.80
2023-11-16T16:34:28.717Z,4.10
2023-11-16T16:37:30.290Z,4.43
2023-11-16T16:40:31.895Z,4.97
2023-11-16T16:43:34.051Z,5.43
2023-11-16T16:46:42.451Z,4.38
2023-11-16T16:49:44.483Z,3.92
2023-11-16T16:52:46.052Z,4.70
2023-11-16T16:55:47.812Z,3.38
2023-11-16T16:58:49.574Z,3.33
2023-11-16T17:01:51.505Z,2.75
2023-11-16T17:04:53.216Z,3.70
2023-11-16T17:07:55.202Z,2.50
2023-11-16T17:10:56.751Z,3.28
2023-11-16T17:13:58.534Z,2.53
2023-11-16T17:17:02.963Z,1.70
2023-11-16T17:20:12.357Z,2.00
2023-11-16T17:23:14.076Z,1.88
2023-11-16T17:26:15.641Z,2.30
2023-11-16T17:29:18.019Z,1.48
2023-11-16T17:32:19.690Z,3.95
2023-11-16T17:35:21.311Z,1.77
2023-11-16T17:38:22.887Z,1.63
2023-11-16T17:41:24.726Z,1.08
2023-11-16T17:44:27.627Z,1.50
2023-11-16T17:47:29.216Z,1.33
2023-11-16T17:50:30.786Z,1.80
2023-11-16T17:53:33.456Z,1.52
2023-11-16T17:56:35.443Z,1.10
2023-11-16T17:59:37.475Z,1.40
2023-11-16T18:02:42.878Z,1.58
2023-11-16T18:05:44.639Z,1.00
2023-11-16T18:08:46.362Z,1.10
2023-11-16T18:11:48.531Z,1.15
2023-11-16T18:14:50.737Z,1.58
2023-11-16T18:17:52.461Z,2.20
2023-11-16T18:20:55.042Z,2.03
2023-11-16T18:23:56.773Z,2.17
2023-11-16T18:26:58.489Z,1.73
2023-11-16T18:30:00.086Z,2.35
2023-11-16T18:33:01.796Z,1.40
2023-11-16T18:36:04.305Z,1.45
2023-11-16T18:39:06.998Z,1.95
2023-11-16T18:42:12.036Z,1.50
2023-11-16T18:45:13.690Z,1.60
2023-11-16T18:48:15.820Z,1.77
2023-11-16T18:51:17.458Z,1.50
2023-11-16T18:54:19.723Z,1.55
2023-11-16T18:57:21.387Z,1.40
2023-11-16T19:00:23.038Z,2.13
2023-11-16T19:03:25.594Z,1.52
2023-11-16T19:06:27.284Z,1.55
2023-11-16T19:09:28.905Z,1.23
2023-11-16T19:12:30.521Z,1.33
2023-11-16T19:15:32.239Z,1.50
2023-11-16T19:18:36.996Z,1.83
2023-11-16T19:21:38.950Z,2.50
2023-11-16T19:24:40.649Z,1.92
2023-11-16T19:27:43.230Z,2.35
2023-11-16T19:30:47.036Z,1.50
2023-11-16T19:33:48.797Z,2.38
2023-11-16T19:36:50.468Z,2.80
2023-11-16T19:39:52.245Z,2.30
2023-11-16T19:42:55.243Z,2.10
